createdAt,value
2023-04-28T00:01:12.393Z,64.79
2023-04-28T00:03:39.001Z,64.82
2023-04-28T00:06:05.997Z,64.54
2023-04-28T00:08:32.709Z,65.24
2023-04-28T00:10:59.235Z,64.75
2023-04-28T00:13:25.722Z,65.17
2023-04-28T00:15:55.287Z,65.20
2023-04-28T00:18:21.996Z,64.74
2023-04-28T00:20:48.458Z,64.91
2023-04-28T00:23:15.912Z,65.36
2023-04-28T00:25:42.290Z,64.84
2023-04-28T00:28:08.842Z,64.69
2023-04-28T00:30:35.362Z,65.44
2023-04-28T00:33:01.720Z,64.93
2023-04-28T00:35:28.061Z,65.43
2023-04-28T00:37:54.424Z,65.47
2023-04-28T00:40:21.023Z,65.69
2023-04-28T00:42:47.491Z,65.47
2023-04-28T00:45:13.871Z,66.03
2023-04-28T00:47:42.159Z,65.84
2023-04-28T00:50:10.497Z,65.96
2023-04-28T00:52:38.679Z,66.89
2023-04-28T00:55:05.659Z,66.33
2023-04-28T00:57:32.217Z,66.30
2023-04-28T00:59:58.668Z,65.51
2023-04-28T01:02:26.402Z,65.78
2023-04-28T01:04:54.345Z,66.06
2023-04-28T01:07:21.034Z,65.88
2023-04-28T01:09:47.916Z,66.64
2023-04-28T01:12:14.437Z,66.47
2023-04-28T01:14:41.013Z,65.57
2023-04-28T01:17:08.634Z,66.14
2023-04-28T01:19:34.980Z,66.78
2023-04-28T01:22:01.388Z,66.89
2023-04-28T01:24:27.919Z,66.35
2023-04-28T01:26:54.282Z,66.91
2023-04-28T01:29:20.669Z,66.99
2023-04-28T01:31:47.114Z,67.50
2023-04-28T01:34:13.785Z,67.43
2023-04-28T01:36:40.490Z,68.30
2023-04-28T01:39:06.974Z,67.48
2023-04-28T01:41:36.334Z,68.00
2023-04-28T01:44:03.809Z,67.88
2023-04-28T01:46:30.334Z,67.60
2023-04-28T01:48:56.677Z,67.48
2023-04-28T01:51:23.049Z,67.16
2023-04-28T01:53:49.479Z,68.03
2023-04-28T01:56:15.889Z,67.17
2023-04-28T01:58:42.330Z,67.23
2023-04-28T02:01:08.780Z,67.29
2023-04-28T02:03:35.357Z,67.23
2023-04-28T02:06:01.864Z,67.31
2023-04-28T02:08:28.211Z,67.45
2023-04-28T02:10:54.613Z,67.39
2023-04-28T02:13:21.016Z,68.30
2023-04-28T02:15:47.401Z,67.94
2023-04-28T02:18:13.774Z,67.69
2023-04-28T02:20:40.861Z,67.68
2023-04-28T02:23:07.252Z,66.97
2023-04-28T02:25:33.647Z,68.27
2023-04-28T02:28:00.112Z,67.58
2023-04-28T02:30:26.498Z,67.16
2023-04-28T02:32:52.934Z,67.99
2023-04-28T02:35:19.560Z,68.22
2023-04-28T02:37:46.558Z,68.24
2023-04-28T02:40:13.133Z,67.91
2023-04-28T02:42:39.514Z,68.46
2023-04-28T02:45:06.565Z,68.69
2023-04-28T02:47:32.943Z,68.09
2023-04-28T02:49:59.354Z,68.80
2023-04-28T02:52:25.728Z,68.12
2023-04-28T02:54:54.643Z,67.46
2023-04-28T02:57:21.188Z,68.19
2023-04-28T02:59:47.513Z,67.69
2023-04-28T03:02:13.919Z,67.35
2023-04-28T03:04:40.928Z,67.92
2023-04-28T03:07:07.596Z,68.10
2023-04-28T03:09:33.940Z,67.97
2023-04-28T03:12:00.289Z,67.97
2023-04-28T03:14:26.833Z,68.79
2023-04-28T03:16:53.172Z,69.13
2023-04-28T03:19:19.543Z,68.67
2023-04-28T03:21:46.181Z,68.28
2023-04-28T03:24:12.578Z,68.77
2023-04-28T03:26:39.014Z,68.97
2023-04-28T03:29:05.402Z,68.62
2023-04-28T03:31:31.750Z,68.60
2023-04-28T03:33:59.473Z,68.96
2023-04-28T03:36:27.406Z,68.90
2023-04-28T03:38:53.887Z,68.44
2023-04-28T03:41:20.209Z,68.67
2023-04-28T03:43:46.529Z,69.11
2023-04-28T03:46:12.920Z,68.98
2023-04-28T03:48:39.306Z,69.28
2023-04-28T03:51:05.736Z,69.38
2023-04-28T03:53:32.060Z,70.01
2023-04-28T03:55:58.392Z,70.60
2023-04-28T03:58:24.878Z,69.25
2023-04-28T04:00:51.337Z,69.67
2023-04-28T04:03:17.939Z,70.35
2023-04-28T04:05:44.515Z,70.36
2023-04-28T04:08:11.158Z,71.26
2023-04-28T04:10:37.505Z,71.80
2023-04-28T04:13:03.844Z,70.58
2023-04-28T04:15:30.311Z,70.97
2023-04-28T04:17:56.841Z,71.32
2023-04-28T04:20:23.241Z,71.18
2023-04-28T04:22:49.626Z,72.03
2023-04-28T04:25:16.742Z,71.92
2023-04-28T04:27:43.153Z,71.98
2023-04-28T04:30:09.793Z,72.23
2023-04-28T04:32:36.143Z,72.52
2023-04-28T04:35:02.581Z,72.65
2023-04-28T04:37:29.120Z,72.65
2023-04-28T04:39:55.515Z,73.24
2023-04-28T04:42:25.345Z,73.58
2023-04-28T04:44:52.223Z,72.90
2023-04-28T04:47:19.059Z,73.60
2023-04-28T04:49:45.459Z,73.65
2023-04-28T04:52:11.882Z,73.40
2023-04-28T04:54:38.248Z,72.88
2023-04-28T04:57:04.685Z,73.05
2023-04-28T04:59:30.984Z,73.91
2023-04-28T05:01:57.448Z,74.22
2023-04-28T05:04:24.013Z,73.90
2023-04-28T05:06:51.478Z,73.60
2023-04-28T05:09:17.873Z,73.47
2023-04-28T05:11:44.239Z,74.05
2023-04-28T05:14:10.701Z,73.96
2023-04-28T05:16:37.585Z,73.00
2023-04-28T05:19:04.624Z,73.80
2023-04-28T05:21:31.106Z,74.03
2023-04-28T05:23:57.477Z,73.67
2023-04-28T05:26:24.126Z,74.19
2023-04-28T05:28:50.569Z,74.17
2023-04-28T05:31:17.281Z,73.73
2023-04-28T05:33:43.677Z,73.35
2023-04-28T05:36:10.110Z,73.53
2023-04-28T05:38:36.610Z,74.93
2023-04-28T05:41:02.959Z,75.11
2023-04-28T05:43:29.316Z,76.60
2023-04-28T05:45:55.727Z,79.89
2023-04-28T05:48:22.171Z,82.24
2023-04-28T05:50:48.610Z,82.40
2023-04-28T05:53:14.977Z,82.47
2023-04-28T05:55:41.375Z,83.48
2023-04-28T05:58:08.114Z,84.00
2023-04-28T06:00:34.587Z,86.14
2023-04-28T06:03:01.663Z,87.71
2023-04-28T06:05:28.292Z,89.36
2023-04-28T06:07:56.130Z,90.41
2023-04-28T06:10:26.415Z,90.47
2023-04-28T06:12:52.739Z,91.74
2023-04-28T06:15:19.207Z,92.18
2023-04-28T06:17:45.872Z,93.13
2023-04-28T06:20:13.880Z,93.06
2023-04-28T06:22:41.378Z,93.94
2023-04-28T06:25:08.399Z,93.52
2023-04-28T06:27:34.840Z,93.00
2023-04-28T06:30:01.212Z,91.11
2023-04-28T06:32:27.612Z,92.09
2023-04-28T06:34:54.044Z,91.78
2023-04-28T06:37:20.424Z,90.73
2023-04-28T06:39:46.963Z,90.71
2023-04-28T06:42:13.318Z,90.72
2023-04-28T06:44:39.644Z,91.45
2023-04-28T06:47:06.245Z,91.59
2023-04-28T06:49:32.668Z,91.86
2023-04-28T06:51:58.974Z,92.66
2023-04-28T06:54:25.354Z,93.13
2023-04-28T06:56:51.671Z,94.00
2023-04-28T06:59:18.000Z,94.64
2023-04-28T07:01:44.433Z,95.51
2023-04-28T07:04:10.990Z,95.12
2023-04-28T07:06:37.644Z,95.62
2023-04-28T07:09:04.548Z,96.17
2023-04-28T07:11:33.369Z,97.14
2023-04-28T07:13:59.788Z,97.44
2023-04-28T07:16:26.654Z,97.74
2023-04-28T07:18:53.044Z,97.85
2023-04-28T07:21:19.969Z,97.46
2023-04-28T07:23:46.392Z,97.69
2023-04-28T07:26:16.207Z,98.06
2023-04-28T07:28:44.279Z,97.06
2023-04-28T07:31:10.705Z,96.15
2023-04-28T07:33:37.078Z,96.37
2023-04-28T07:36:03.623Z,96.13
2023-04-28T07:38:30.246Z,95.35
2023-04-28T07:40:57.158Z,95.83
2023-04-28T07:43:23.548Z,95.46
2023-04-28T07:45:50.131Z,94.90
2023-04-28T07:48:16.764Z,94.74
2023-04-28T07:50:43.192Z,95.28
2023-04-28T07:53:09.616Z,94.59
2023-04-28T07:55:36.489Z,94.04
2023-04-28T07:58:03.258Z,93.14
2023-04-28T08:00:29.801Z,91.99
2023-04-28T08:02:57.634Z,92.42
2023-04-28T08:05:24.638Z,92.86
2023-04-28T08:07:51.474Z,92.42
2023-04-28T08:10:17.876Z,92.08
2023-04-28T08:12:45.327Z,93.00
2023-04-28T08:15:12.231Z,93.00
2023-04-28T08:17:38.991Z,92.80
2023-04-28T08:20:06.829Z,93.27
2023-04-28T08:22:33.262Z,92.69
2023-04-28T08:24:59.643Z,94.31
2023-04-28T08:27:26.179Z,95.94
2023-04-28T08:29:52.881Z,96.79
2023-04-28T08:32:19.281Z,97.85
2023-04-28T08:34:45.670Z,98.53
2023-04-28T08:37:12.117Z,99.13
2023-04-28T08:39:38.491Z,99.28
2023-04-28T08:42:05.540Z,99.62
2023-04-28T08:44:40.685Z,100.00
2023-04-28T08:47:14.592Z,98.98
2023-04-28T08:49:41.440Z,99.01
2023-04-28T08:52:12.912Z,98.96
2023-04-28T08:54:42.873Z,99.40
2023-04-28T08:57:10.705Z,100.00
2023-04-28T08:59:40.044Z,100.00
2023-04-28T09:02:08.728Z,100.00
2023-04-28T09:04:35.523Z,99.34
2023-04-28T09:07:02.029Z,99.43
2023-04-28T09:09:33.278Z,99.85
2023-04-28T09:12:02.008Z,100.00
2023-04-28T09:14:29.888Z,100.00
2023-04-28T09:16:56.789Z,100.00
2023-04-28T09:19:23.576Z,100.00
2023-04-28T09:21:55.081Z,100.00
2023-04-28T09:24:29.885Z,100.00
2023-04-28T09:26:56.490Z,100.00
2023-04-28T09:29:23.067Z,100.00
2023-04-28T09:31:49.641Z,100.00
2023-04-28T09:34:16.310Z,100.00
2023-04-28T09:36:43.055Z,100.00
2023-04-28T09:39:09.488Z,100.00
2023-04-28T09:41:40.494Z,100.00
2023-04-28T09:44:18.953Z,100.00
2023-04-28T09:46:46.706Z,100.00
2023-04-28T09:49:14.199Z,100.00
2023-04-28T09:51:41.167Z,100.00
2023-04-28T09:54:07.794Z,100.00
2023-04-28T09:56:40.886Z,100.00
2023-04-28T09:59:07.346Z,100.00
2023-04-28T10:01:41.193Z,100.00
2023-04-28T10:04:09.002Z,100.00
2023-04-28T10:06:36.759Z,100.00
2023-04-28T10:09:03.405Z,100.00
2023-04-28T10:11:30.657Z,100.00
2023-04-28T10:13:57.140Z,100.00
2023-04-28T10:16:24.192Z,100.00
2023-04-28T10:18:52.033Z,100.00
2023-04-28T10:21:19.710Z,100.00
2023-04-28T10:24:00.562Z,100.00
2023-04-28T10:26:49.948Z,100.00
2023-04-28T10:29:16.498Z,100.00
2023-04-28T10:32:15.676Z,100.00
2023-04-28T10:34:42.023Z,100.00
2023-04-28T10:37:08.736Z,100.00
2023-04-28T10:39:35.065Z,100.00
2023-04-28T10:42:01.894Z,100.00
2023-04-28T10:44:28.201Z,100.00
2023-04-28T10:47:06.843Z,100.00
2023-04-28T10:50:11.671Z,100.00
2023-04-28T10:52:38.442Z,100.00
2023-04-28T10:55:39.976Z,100.00
2023-04-28T10:58:15.288Z,100.00
2023-04-28T11:00:42.971Z,100.00
2023-04-28T11:03:09.920Z,100.00
2023-04-28T11:05:36.742Z,100.00
2023-04-28T11:08:33.086Z,100.00
2023-04-28T11:11:13.698Z,100.00
2023-04-28T11:13:41.918Z,100.00
2023-04-28T11:16:09.406Z,100.00
2023-04-28T11:18:54.957Z,100.00
2023-04-28T11:21:23.584Z,100.00
2023-04-28T11:23:50.216Z,100.00
2023-04-28T11:26:17.204Z,100.00
2023-04-28T11:28:48.587Z,100.00
2023-04-28T11:31:19.058Z,100.00
2023-04-28T11:33:49.282Z,100.00
2023-04-28T11:36:31.707Z,100.00
2023-04-28T11:38:58.923Z,100.00
2023-04-28T11:41:26.669Z,100.00
2023-04-28T11:43:53.907Z,100.00
2023-04-28T11:46:23.401Z,100.00
2023-04-28T11:49:00.832Z,100.00
2023-04-28T11:51:35.470Z,100.00
2023-04-28T11:54:03.442Z,100.00
2023-04-28T11:56:30.212Z,100.00
2023-04-28T11:59:04.609Z,100.00
2023-04-28T12:01:32.607Z,100.00
2023-04-28T12:03:59.222Z,100.00
2023-04-28T12:06:25.849Z,100.00
2023-04-28T12:08:52.793Z,100.00
2023-04-28T12:11:21.885Z,100.00
2023-04-28T12:14:06.585Z,100.00
2023-04-28T12:16:44.882Z,100.00
2023-04-28T12:19:12.550Z,100.00
2023-04-28T12:21:40.088Z,100.00
2023-04-28T12:24:20.532Z,100.00
2023-04-28T12:26:48.569Z,100.00
2023-04-28T12:29:38.144Z,100.00
2023-04-28T12:32:06.629Z,100.00
2023-04-28T12:34:33.530Z,100.00
2023-04-28T12:37:01.675Z,100.00
2023-04-28T12:39:28.618Z,100.00
2023-04-28T12:41:55.706Z,100.00
2023-04-28T12:44:24.720Z,100.00
2023-04-28T12:46:52.085Z,100.00
2023-04-28T12:49:18.416Z,100.00
2023-04-28T12:51:45.119Z,100.00
2023-04-28T12:54:11.459Z,100.00
2023-04-28T12:56:37.862Z,100.00
2023-04-28T12:59:04.571Z,100.00
2023-04-28T13:01:31.092Z,100.00
2023-04-28T13:03:57.670Z,100.00
2023-04-28T13:06:24.197Z,100.00
2023-04-28T13:08:50.633Z,100.00
2023-04-28T13:11:22.817Z,100.00
2023-04-28T13:13:49.551Z,100.00
2023-04-28T13:16:15.962Z,100.00
2023-04-28T13:18:42.476Z,100.00
2023-04-28T13:21:08.885Z,100.00
2023-04-28T13:23:35.339Z,100.00
2023-04-28T13:26:01.761Z,100.00
2023-04-28T13:28:29.043Z,100.00
2023-04-28T13:30:55.779Z,100.00
2023-04-28T13:33:22.224Z,100.00
2023-04-28T13:35:48.555Z,100.00
2023-04-28T13:38:15.004Z,100.00
2023-04-28T13:40:42.341Z,100.00
2023-04-28T13:43:08.720Z,100.00
2023-04-28T13:45:35.119Z,100.00
2023-04-28T13:48:01.505Z,100.00
2023-04-28T13:50:27.903Z,100.00
2023-04-28T13:52:54.345Z,100.00
2023-04-28T13:55:27.448Z,100.00
2023-04-28T13:57:55.146Z,100.00
2023-04-28T14:00:22.192Z,100.00
2023-04-28T14:02:50.497Z,100.00
2023-04-28T14:05:17.603Z,100.00
2023-04-28T14:07:44.348Z,100.00
2023-04-28T14:10:11.903Z,100.00
2023-04-28T14:12:38.345Z,100.00
2023-04-28T14:15:07.010Z,100.00
2023-04-28T14:17:34.516Z,100.00
2023-04-28T14:20:01.688Z,100.00
2023-04-28T14:22:28.352Z,100.00
2023-04-28T14:24:54.722Z,100.00
2023-04-28T14:27:21.891Z,100.00
2023-04-28T14:29:49.096Z,100.00
2023-04-28T14:32:16.530Z,100.00
2023-04-28T14:34:43.164Z,100.00
2023-04-28T14:37:09.709Z,100.00
2023-04-28T14:39:37.832Z,100.00
2023-04-28T14:42:04.157Z,100.00
2023-04-28T14:44:30.480Z,100.00
2023-04-28T14:46:56.848Z,100.00
2023-04-28T14:49:23.729Z,100.00
2023-04-28T14:51:50.455Z,100.00
2023-04-28T14:54:16.887Z,100.00
2023-04-28T14:56:43.932Z,100.00
2023-04-28T14:59:10.393Z,100.00
2023-04-28T15:01:37.643Z,100.00
2023-04-28T15:04:05.231Z,100.00
2023-04-28T15:06:32.862Z,100.00
2023-04-28T15:08:59.181Z,100.00
2023-04-28T15:11:25.761Z,100.00
2023-04-28T15:13:52.193Z,100.00
2023-04-28T15:16:19.158Z,100.00
2023-04-28T15:18:46.042Z,100.00
2023-04-28T15:21:12.565Z,100.00
2023-04-28T15:23:38.878Z,100.00
2023-04-28T15:26:05.296Z,100.00
2023-04-28T15:28:31.721Z,100.00
2023-04-28T15:30:58.042Z,100.00
2023-04-28T15:33:24.661Z,100.00
2023-04-28T15:35:51.199Z,100.00
2023-04-28T15:38:18.100Z,100.00
2023-04-28T15:40:45.909Z,100.00
2023-04-28T15:43:13.306Z,100.00
2023-04-28T15:45:39.793Z,100.00
2023-04-28T15:48:06.623Z,100.00
2023-04-28T15:50:33.257Z,100.00
2023-04-28T15:52:59.881Z,100.00
2023-04-28T15:55:26.382Z,100.00
2023-04-28T15:57:52.854Z,100.00
2023-04-28T16:00:19.517Z,100.00
2023-04-28T16:02:46.663Z,100.00
2023-04-28T16:05:13.395Z,100.00
2023-04-28T16:07:42.907Z,100.00
2023-04-28T16:10:11.338Z,100.00
2023-04-28T16:12:38.780Z,100.00
2023-04-28T16:15:06.977Z,100.00
2023-04-28T16:17:34.099Z,100.00
2023-04-28T16:20:00.534Z,100.00
2023-04-28T16:22:27.990Z,100.00
2023-04-28T16:24:54.802Z,100.00
2023-04-28T16:27:21.314Z,100.00
2023-04-28T16:29:47.716Z,100.00
2023-04-28T16:32:14.510Z,100.00
2023-04-28T16:34:41.360Z,100.00
2023-04-28T16:37:08.053Z,100.00
2023-04-28T16:39:34.427Z,100.00
2023-04-28T16:42:00.848Z,100.00
2023-04-28T16:44:28.855Z,100.00
2023-04-28T16:46:55.251Z,100.00
2023-04-28T16:49:21.666Z,100.00
2023-04-28T16:52:04.562Z,100.00
2023-04-28T16:54:32.160Z,100.00
2023-04-28T16:56:59.898Z,100.00
2023-04-28T16:59:29.449Z,100.00
2023-04-28T17:01:56.869Z,100.00
2023-04-28T17:04:24.360Z,100.00
2023-04-28T17:06:51.741Z,100.00
2023-04-28T17:09:18.945Z,100.00
2023-04-28T17:11:45.500Z,100.00
2023-04-28T17:14:11.865Z,100.00
2023-04-28T17:16:38.253Z,100.00
2023-04-28T17:19:05.470Z,100.00
2023-04-28T17:21:33.698Z,100.00
2023-04-28T17:24:00.288Z,100.00
2023-04-28T17:26:28.215Z,100.00
2023-04-28T17:28:55.608Z,100.00
2023-04-28T17:31:22.713Z,100.00
2023-04-28T17:33:53.307Z,100.00
2023-04-28T17:36:21.737Z,100.00
2023-04-28T17:38:48.420Z,100.00
2023-04-28T17:41:16.662Z,100.00
2023-04-28T17:43:43.257Z,100.00
2023-04-28T17:46:10.124Z,100.00
2023-04-28T17:48:36.709Z,100.00
2023-04-28T17:51:03.046Z,100.00
2023-04-28T17:53:29.426Z,100.00
2023-04-28T17:55:55.799Z,100.00
2023-04-28T17:58:23.062Z,100.00
2023-04-28T18:00:49.469Z,100.00
2023-04-28T18:03:16.122Z,100.00
2023-04-28T18:05:42.936Z,100.00
2023-04-28T18:08:09.424Z,100.00
2023-04-28T18:10:35.780Z,100.00
2023-04-28T18:13:02.341Z,100.00
2023-04-28T18:15:28.900Z,100.00
2023-04-28T18:17:56.399Z,100.00
2023-04-28T18:20:22.941Z,100.00
2023-04-28T18:22:49.265Z,100.00
2023-04-28T18:25:16.893Z,100.00
2023-04-28T18:27:43.427Z,100.00
2023-04-28T18:30:10.371Z,100.00
2023-04-28T18:32:36.981Z,100.00
2023-04-28T18:35:03.608Z,100.00
2023-04-28T18:37:29.968Z,100.00
2023-04-28T18:39:57.200Z,100.00
2023-04-28T18:42:24.244Z,100.00
2023-04-28T18:44:58.223Z,100.00
2023-04-28T18:47:25.578Z,100.00
2023-04-28T18:49:52.354Z,100.00
2023-04-28T18:52:18.773Z,100.00
2023-04-28T18:54:45.478Z,100.00
2023-04-28T18:57:12.711Z,100.00
2023-04-28T18:59:39.394Z,100.00
2023-04-28T19:02:05.772Z,100.00
2023-04-28T19:04:32.293Z,100.00
2023-04-28T19:06:58.741Z,100.00
2023-04-28T19:09:25.458Z,100.00
2023-04-28T19:11:51.773Z,100.00
2023-04-28T19:14:18.083Z,100.00
2023-04-28T19:16:44.529Z,100.00
2023-04-28T19:19:11.100Z,100.00
2023-04-28T19:21:42.317Z,100.00
2023-04-28T19:24:09.071Z,100.00
2023-04-28T19:26:35.616Z,100.00
2023-04-28T19:29:02.261Z,100.00
2023-04-28T19:31:28.693Z,100.00
2023-04-28T19:33:55.118Z,100.00
2023-04-28T19:36:22.359Z,100.00
2023-04-28T19:38:48.694Z,100.00
2023-04-28T19:41:15.085Z,100.00
2023-04-28T19:43:41.430Z,100.00
2023-04-28T19:46:08.282Z,100.00
2023-04-28T19:48:34.725Z,100.00
2023-04-28T19:51:01.280Z,100.00
2023-04-28T19:53:27.624Z,100.00
2023-04-28T19:55:54.685Z,100.00
2023-04-28T19:58:22.157Z,100.00
2023-04-28T20:00:48.590Z,100.00
2023-04-28T20:03:15.093Z,100.00
2023-04-28T20:05:42.208Z,100.00
2023-04-28T20:08:08.606Z,100.00
2023-04-28T20:10:34.960Z,100.00
2023-04-28T20:13:01.858Z,100.00
2023-04-28T20:15:28.312Z,100.00
2023-04-28T20:17:55.245Z,100.00
2023-04-28T20:20:21.785Z,100.00
2023-04-28T20:22:50.600Z,100.00
2023-04-28T20:25:17.513Z,100.00
2023-04-28T20:27:45.619Z,100.00
2023-04-28T20:30:12.173Z,100.00
2023-04-28T20:32:38.661Z,100.00
2023-04-28T20:35:06.172Z,100.00
2023-04-28T20:37:33.235Z,100.00
2023-04-28T20:39:59.618Z,100.00
2023-04-28T20:42:27.030Z,100.00
2023-04-28T20:44:53.348Z,100.00
2023-04-28T20:47:19.658Z,100.00
2023-04-28T20:49:47.172Z,100.00
2023-04-28T20:52:13.576Z,100.00
2023-04-28T20:54:40.572Z,100.00
2023-04-28T20:57:09.136Z,100.00
2023-04-28T20:59:36.718Z,100.00
2023-04-28T21:02:03.430Z,100.00
2023-04-28T21:04:29.837Z,100.00
2023-04-28T21:06:56.405Z,100.00
2023-04-28T21:09:25.098Z,100.00
2023-04-28T21:11:51.928Z,100.00
2023-04-28T21:14:18.325Z,100.00
2023-04-28T21:16:44.745Z,100.00
2023-04-28T21:19:11.215Z,100.00
2023-04-28T21:21:37.956Z,100.00
2023-04-28T21:24:05.881Z,100.00
2023-04-28T21:26:32.265Z,100.00
2023-04-28T21:28:58.614Z,100.00
2023-04-28T21:31:25.360Z,100.00
2023-04-28T21:33:51.788Z,100.00
2023-04-28T21:36:18.151Z,100.00
2023-04-28T21:38:44.663Z,100.00
2023-04-28T21:41:12.473Z,100.00
2023-04-28T21:43:39.429Z,100.00
2023-04-28T21:46:05.855Z,100.00
2023-04-28T21:48:32.184Z,100.00
2023-04-28T21:50:59.786Z,100.00
2023-04-28T21:53:26.228Z,100.00
2023-04-28T21:55:52.608Z,100.00
2023-04-28T21:58:19.091Z,100.00
2023-04-28T22:00:48.921Z,100.00
2023-04-28T22:03:16.378Z,100.00
2023-04-28T22:05:44.533Z,100.00
2023-04-28T22:08:11.384Z,100.00
2023-04-28T22:10:37.902Z,100.00
2023-04-28T22:13:05.165Z,100.00
2023-04-28T22:15:31.793Z,100.00
2023-04-28T22:17:58.309Z,100.00
2023-04-28T22:20:24.920Z,100.00
2023-04-28T22:22:51.379Z,100.00
2023-04-28T22:25:18.108Z,100.00
2023-04-28T22:27:44.486Z,100.00
2023-04-28T22:30:11.621Z,100.00
2023-04-28T22:32:38.116Z,100.00
2023-04-28T22:35:04.813Z,100.00
2023-04-28T22:37:31.203Z,100.00
2023-04-28T22:39:57.660Z,100.00
2023-04-28T22:42:24.328Z,100.00
2023-04-28T22:44:50.808Z,100.00
2023-04-28T22:47:17.495Z,100.00
2023-04-28T22:49:43.890Z,100.00
2023-04-28T22:52:10.188Z,100.00
2023-04-28T22:54:38.807Z,100.00
2023-04-28T22:57:05.181Z,100.00
2023-04-28T22:59:32.945Z,100.00
2023-04-28T23:01:59.421Z,100.00
2023-04-28T23:04:25.984Z,100.00
2023-04-28T23:06:52.840Z,100.00
2023-04-28T23:09:19.968Z,100.00
2023-04-28T23:11:46.363Z,100.00
2023-04-28T23:14:12.785Z,100.00
2023-04-28T23:16:39.329Z,100.00
2023-04-28T23:19:05.769Z,100.00
2023-04-28T23:21:32.164Z,100.00
2023-04-28T23:23:58.557Z,100.00
2023-04-28T23:26:25.429Z,100.00
2023-04-28T23:28:53.368Z,100.00
2023-04-28T23:31:19.932Z,100.00
2023-04-28T23:33:46.312Z,100.00
2023-04-28T23:36:13.678Z,100.00
2023-04-28T23:38:40.129Z,100.00
2023-04-28T23:41:06.736Z,100.00
2023-04-28T23:43:33.193Z,100.00
2023-04-28T23:45:59.573Z,100.00
2023-04-28T23:48:26.142Z,100.00
2023-04-28T23:50:52.457Z,100.00
2023-04-28T23:53:18.961Z,100.00
2023-04-28T23:55:45.280Z,100.00
2023-04-28T23:58:11.625Z,100.00
